Time;durP1;ratioP1;P1;durP2;ratioP2;P2;SDS_P1;SDS_P2;PMS_P1;PMS_P2;Temp;Humidity;BMP_temperature;BMP_pressure;BME280_temperature;BME280_humidity;BME280_pressure;Samples;Min_cycle;Max_cycle;Signal;HPM_P1;HPM_P2
2021/12/22 00:00:47;;;;;;;27.02;12.73;;;;;;;-8.25;86.38;98209.41;5028864;28;20673;-57
2021/12/22 00:03:14;;;;;;;23.67;13.38;;;;;;;-8.22;87.65;98211.81;5043771;28;20049;-55
2021/12/22 00:05:46;;;;;;;30.88;16.35;;;;;;;-8.02;87.43;98215.59;5045704;28;20056;-57
2021/12/22 00:08:14;;;;;;;32.42;16.83;;;;;;;-7.88;87.24;98216.38;5046700;28;20045;-53
2021/12/22 00:10:41;;;;;;;30.27;15.82;;;;;;;-7.92;86.05;98223.66;5043027;28;20096;-57
2021/12/22 00:13:08;;;;;;;27.00;13.88;;;;;;;-7.98;85.84;98221.47;5031597;28;20045;-55
2021/12/22 00:15:35;;;;;;;23.25;12.77;;;;;;;-8.04;86.14;98208.78;5028272;28;20041;-58
2021/12/22 00:18:02;;;;;;;24.27;12.60;;;;;;;-7.98;86.06;98211.81;5047419;28;20045;-57
2021/12/22 00:20:29;;;;;;;28.95;13.23;;;;;;;-7.91;85.22;98211.34;5045813;28;20052;-58
2021/12/22 00:22:59;;;;;;;25.67;11.60;;;;;;;-8.39;85.05;98213.88;5028376;28;20496;-56
2021/12/22 00:25:26;;;;;;;22.30;11.38;;;;;;;-8.71;85.14;98208.34;5027233;28;20103;-54
2021/12/22 00:27:54;;;;;;;19.90;11.57;;;;;;;-8.92;85.67;98201.03;5045826;28;20053;-55
2021/12/22 00:30:23;;;;;;;21.75;11.77;;;;;;;-9.17;85.99;98202.72;5046728;28;20041;-55
2021/12/22 00:32:52;;;;;;;24.40;11.90;;;;;;;-9.20;87.53;98198.53;5028140;28;20104;-53
2021/12/22 00:35:23;;;;;;;22.77;11.00;;;;;;;-8.98;88.45;98202.28;5026797;28;20041;-55
2021/12/22 00:37:50;;;;;;;27.10;12.07;;;;;;;-8.71;88.79;98209.16;5043888;28;20402;-56
2021/12/22 00:40:17;;;;;;;23.73;12.80;;;;;;;-8.45;85.89;98206.41;5026867;28;20284;-54
2021/12/22 00:42:43;;;;;;;24.55;12.30;;;;;;;-8.56;84.88;98212.47;5042442;28;20504;-57
2021/12/22 00:45:11;;;;;;;25.90;13.60;;;;;;;-8.64;86.43;98223.53;5029843;28;20084;-56
2021/12/22 00:47:37;;;;;;;23.60;11.77;;;;;;;-8.51;86.34;98223.44;5040761;28;20045;-57
2021/12/22 00:50:06;;;;;;;26.02;13.05;;;;;;;-8.74;86.23;98217.25;5046431;28;20087;-56
2021/12/22 00:52:33;;;;;;;26.05;13.38;;;;;;;-8.96;87.00;98215.31;5041537;28;20037;-56
2021/12/22 00:54:59;;;;;;;25.45;12.88;;;;;;;-8.94;87.66;98219.50;5046825;28;20703;-56
2021/12/22 00:57:26;;;;;;;20.83;11.73;;;;;;;-8.97;87.83;98213.59;5045528;28;20522;-57
2021/12/22 00:59:53;;;;;;;30.27;13.48;;;;;;;-8.83;87.34;98216.13;5037854;28;20054;-55
2021/12/22 01:02:20;;;;;;;26.13;15.05;;;;;;;-8.46;88.19;98219.66;5028375;28;20075;-55
2021/12/22 01:04:47;;;;;;;24.35;13.27;;;;;;;-8.72;86.02;98220.59;5033002;28;20401;-56
2021/12/22 01:07:14;;;;;;;23.98;11.00;;;;;;;-8.99;85.52;98216.34;5037760;28;20513;-52
2021/12/22 01:09:41;;;;;;;22.65;11.40;;;;;;;-9.04;86.68;98216.66;5031239;28;20503;-52
2021/12/22 01:12:08;;;;;;;24.23;12.48;;;;;;;-8.97;87.50;98205.72;5027627;28;20440;-55
2021/12/22 01:14:37;;;;;;;22.52;11.55;;;;;;;-8.91;87.02;98208.78;5033350;28;20049;-58
2021/12/22 01:17:04;;;;;;;27.58;13.00;;;;;;;-8.96;87.35;98207.44;5023009;28;20099;-56
2021/12/22 01:19:44;;;;;;;31.05;13.60;;;;;;;-9.08;87.22;98199.44;5035427;28;20037;-57
2021/12/22 01:22:47;;;;;;;26.35;13.05;;;;;;;-9.07;87.58;98200.31;5040797;28;20037;-58
2021/12/22 01:25:07;;;;;;;27.17;13.60;;;;;;;-8.90;88.64;98207.84;5027657;28;20049;-58
2021/12/22 01:27:39;;;;;;;26.65;13.52;;;;;;;-8.57;88.41;98208.19;5031471;28;20071;-58
2021/12/22 01:30:10;;;;;;;32.05;15.02;;;;;;;-8.39;86.34;98213.03;5032802;28;20052;-58
2021/12/22 01:32:37;;;;;;;27.08;14.40;;;;;;;-8.22;86.32;98217.88;5031581;28;20487;-55
2021/12/22 01:35:07;;;;;;;25.15;12.13;;;;;;;-8.37;86.35;98219.03;5023696;28;20471;-55
2021/12/22 01:37:34;;;;;;;26.60;13.68;;;;;;;-8.39;86.23;98216.50;5025595;28;20467;-56
2021/12/22 01:40:01;;;;;;;26.92;14.13;;;;;;;-8.48;86.05;98207.47;5025473;28;20050;-53
2021/12/22 01:42:29;;;;;;;26.90;13.85;;;;;;;-8.55;86.53;98221.19;5041690;28;20041;-55
2021/12/22 01:50:39;;;;;;;21.85;11.35;;;;;;;-8.76;86.30;98212.13;5044964;28;20045;-55
2021/12/22 01:53:29;;;;;;;22.77;10.80;;;;;;;-8.73;86.20;98212.84;5029892;28;20091;-55
2021/12/22 01:58:43;;;;;;;19.25;11.73;;;;;;;-8.52;86.80;98216.53;5029880;28;20053;-56
2021/12/22 02:01:11;;;;;;;20.20;11.13;;;;;;;-8.34;85.95;98221.41;5024046;28;20038;-55
2021/12/22 02:03:39;;;;;;;25.08;11.50;;;;;;;-8.21;85.19;98216.13;5024238;28;20049;-57
2021/12/22 02:06:06;;;;;;;23.25;12.15;;;;;;;-8.06;85.22;98223.81;5024870;28;20064;-56
2021/12/22 02:08:33;;;;;;;19.13;11.55;;;;;;;-8.02;83.93;98222.66;5026835;28;20057;-54
2021/12/22 02:11:00;;;;;;;25.83;12.07;;;;;;;-8.14;84.62;98219.94;5029249;28;20048;-56
2021/12/22 02:13:32;;;;;;;21.17;11.25;;;;;;;-8.14;84.79;98221.75;5024441;28;20037;-57
2021/12/22 02:16:10;;;;;;;25.30;13.07;;;;;;;-8.29;84.57;98224.53;5023915;28;20103;-55
2021/12/22 02:18:52;;;;;;;25.20;11.52;;;;;;;-8.37;85.26;98232.97;5020392;28;20133;-53
2021/12/22 02:21:21;;;;;;;19.05;10.25;;;;;;;-8.40;85.94;98232.38;5030476;28;20642;-53
2021/12/22 02:23:47;;;;;;;22.20;10.65;;;;;;;-8.28;85.76;98228.00;5026991;28;20045;-57
2021/12/22 02:26:39;;;;;;;25.05;11.93;;;;;;;-8.16;85.12;98227.13;5026825;28;20049;-56
2021/12/22 02:29:07;;;;;;;23.35;10.70;;;;;;;-8.08;84.79;98218.66;5039320;28;20045;-55
2021/12/22 02:31:41;;;;;;;22.50;13.18;;;;;;;-8.15;84.15;98220.09;5029710;28;20092;-53
2021/12/22 02:34:14;;;;;;;23.17;11.88;;;;;;;-8.53;84.25;98219.28;5028320;28;20037;-56
2021/12/22 02:36:44;;;;;;;21.13;11.40;;;;;;;-8.52;84.40;98223.59;5033977;28;20048;-54
2021/12/22 02:39:12;;;;;;;22.30;12.35;;;;;;;-8.85;85.60;98223.25;5038714;28;20041;-53
2021/12/22 02:41:39;;;;;;;28.15;14.13;;;;;;;-8.99;85.76;98223.38;5034305;28;20500;-55
2021/12/22 02:44:09;;;;;;;28.67;12.48;;;;;;;-8.86;86.44;98216.31;5041296;28;20739;-51
2021/12/22 02:46:39;;;;;;;21.10;11.50;;;;;;;-8.91;85.71;98213.19;5033451;28;20064;-54
2021/12/22 02:49:07;;;;;;;22.90;11.88;;;;;;;-8.84;85.72;98209.19;5041972;28;20042;-57
2021/12/22 02:51:35;;;;;;;24.50;13.10;;;;;;;-8.95;85.88;98215.19;5033199;28;20451;-53
2021/12/22 03:02:10;;;;;;;27.23;14.10;;;;;;;-8.97;87.23;98213.59;5029982;28;20053;-54
2021/12/22 03:04:45;;;;;;;19.83;11.05;;;;;;;-8.86;86.70;98211.06;5028243;28;20566;-56
2021/12/22 03:07:16;;;;;;;22.10;11.68;;;;;;;-8.80;85.92;98205.41;5027039;28;20041;-55
2021/12/22 03:09:43;;;;;;;19.30;10.40;;;;;;;-8.82;85.54;98206.47;5034695;28;20709;-54
2021/12/22 03:12:12;;;;;;;21.58;11.10;;;;;;;-8.87;85.35;98204.16;5038605;28;20053;-54
2021/12/22 03:14:39;;;;;;;22.80;12.48;;;;;;;-8.93;86.22;98199.31;5031821;28;20049;-54
2021/12/22 03:17:06;;;;;;;25.35;12.32;;;;;;;-9.01;86.32;98194.63;5028467;28;20053;-55
2021/12/22 03:19:35;;;;;;;23.40;12.35;;;;;;;-9.04;86.63;98205.31;5040330;28;20041;-55
2021/12/22 03:22:05;;;;;;;22.23;12.20;;;;;;;-9.02;86.65;98206.06;5038491;28;20655;-55
2021/12/22 03:24:34;;;;;;;20.42;10.82;;;;;;;-9.01;86.27;98202.50;5025551;28;20049;-52
2021/12/22 03:27:03;;;;;;;24.45;11.57;;;;;;;-8.93;86.39;98202.78;5029699;28;20455;-57
2021/12/22 03:29:33;;;;;;;18.95;11.38;;;;;;;-8.98;86.30;98209.31;5016420;28;20055;-56
2021/12/22 03:31:59;;;;;;;22.08;10.77;;;;;;;-8.81;86.72;98210.75;5032979;28;20091;-55
2021/12/22 03:34:26;;;;;;;22.58;11.65;;;;;;;-8.66;85.35;98212.28;5047026;28;20052;-55
2021/12/22 03:36:53;;;;;;;20.95;11.38;;;;;;;-8.74;85.45;98214.59;5038057;28;20576;-56
2021/12/22 03:39:20;;;;;;;23.95;10.95;;;;;;;-8.66;85.34;98227.22;5037008;28;20048;-55
2021/12/22 03:41:47;;;;;;;23.95;11.52;;;;;;;-8.68;85.54;98222.06;5032218;28;20555;-56
2021/12/22 03:44:14;;;;;;;30.95;11.93;;;;;;;-8.53;84.04;98222.78;5040148;28;20083;-57
2021/12/22 03:46:40;;;;;;;21.80;11.55;;;;;;;-8.63;85.57;98226.97;5047457;28;20098;-52
2021/12/22 03:49:10;;;;;;;25.13;12.93;;;;;;;-8.75;84.87;98226.91;5047231;28;20045;-57
2021/12/22 03:51:37;;;;;;;23.15;12.43;;;;;;;-8.67;85.09;98231.63;5007284;28;20103;-55
2021/12/22 03:54:09;;;;;;;22.52;12.80;;;;;;;-8.45;85.90;98231.88;5009706;28;20163;-57
2021/12/22 03:56:36;;;;;;;24.80;11.68;;;;;;;-8.36;85.53;98231.19;5028792;28;20046;-57
2021/12/22 03:59:04;;;;;;;22.70;12.02;;;;;;;-8.44;84.66;98238.78;5026890;28;20045;-54
2021/12/22 04:01:32;;;;;;;25.33;10.40;;;;;;;-8.46;84.73;98238.03;5044817;28;20570;-53
2021/12/22 04:04:04;;;;;;;17.70;10.65;;;;;;;-8.43;84.57;98235.22;5025187;28;20049;-54
2021/12/22 04:06:31;;;;;;;19.27;10.20;;;;;;;-8.42;84.38;98236.88;5024737;28;20063;-54
2021/12/22 04:08:58;;;;;;;21.13;10.95;;;;;;;-8.35;84.18;98230.25;5026600;28;20045;-55
2021/12/22 04:11:24;;;;;;;24.00;11.82;;;;;;;-8.28;83.64;98228.00;5033794;28;20052;-55
2021/12/22 04:13:51;;;;;;;17.38;9.93;;;;;;;-8.39;84.22;98223.53;5026870;28;20512;-53
2021/12/22 04:16:17;;;;;;;21.10;10.48;;;;;;;-8.39;83.03;98218.28;5044953;28;20502;-55
2021/12/22 04:18:44;;;;;;;24.77;11.95;;;;;;;-8.67;84.44;98215.03;5046660;28;20099;-53
2021/12/22 04:21:11;;;;;;;22.67;12.07;;;;;;;-8.84;85.09;98216.22;5029480;28;20049;-54
2021/12/22 04:23:38;;;;;;;22.98;10.77;;;;;;;-8.85;85.79;98210.13;5027712;28;20029;-56
2021/12/22 04:26:04;;;;;;;19.80;11.25;;;;;;;-8.73;85.43;98220.72;5026778;28;20045;-57
2021/12/22 04:28:31;;;;;;;26.52;12.13;;;;;;;-8.63;85.58;98213.84;5026699;28;20467;-57
2021/12/22 04:30:58;;;;;;;25.02;12.15;;;;;;;-8.77;84.61;98201.72;5026377;28;20417;-53
2021/12/22 04:33:25;;;;;;;20.27;12.00;;;;;;;-8.81;85.19;98202.88;5037359;28;20041;-54
2021/12/22 04:35:52;;;;;;;24.63;11.57;;;;;;;-9.18;84.11;98193.19;5028308;28;20049;-54
2021/12/22 04:38:19;;;;;;;26.67;10.57;;;;;;;-9.36;84.54;98200.53;5032444;28;20057;-53
2021/12/22 04:40:46;;;;;;;22.98;11.77;;;;;;;-9.36;85.67;98200.53;5026444;28;20655;-56
2021/12/22 04:43:12;;;;;;;19.65;10.88;;;;;;;-9.23;85.64;98198.72;5034870;28;20103;-56
2021/12/22 04:45:39;;;;;;;19.83;11.63;;;;;;;-9.19;85.56;98199.34;5029509;28;20045;-55
2021/12/22 04:48:06;;;;;;;18.33;11.18;;;;;;;-9.44;84.71;98198.44;5027106;28;20287;-55
2021/12/22 04:50:33;;;;;;;19.48;11.65;;;;;;;-9.40;86.20;98197.28;5025432;28;20045;-57
2021/12/22 04:53:09;;;;;;;27.88;13.00;;;;;;;-9.51;85.36;98198.00;5031641;28;20049;-56
2021/12/22 04:55:36;;;;;;;19.73;11.43;;;;;;;-9.53;85.57;98192.00;5036966;28;20037;-56
2021/12/22 04:58:03;;;;;;;16.10;10.07;;;;;;;-9.27;86.45;98189.38;5045308;28;20048;-57
2021/12/22 05:00:34;;;;;;;25.20;12.15;;;;;;;-9.38;84.23;98197.16;5045501;28;20098;-57
2021/12/22 05:03:01;;;;;;;23.17;10.52;;;;;;;-9.33;85.62;98197.69;5031210;28;20037;-55
2021/12/22 05:05:29;;;;;;;21.25;11.20;;;;;;;-9.52;85.78;98196.31;5023094;28;20046;-53
2021/12/22 05:07:56;;;;;;;24.20;11.98;;;;;;;-9.44;86.17;98201.06;5029712;28;20053;-57
2021/12/22 05:10:24;;;;;;;23.25;11.18;;;;;;;-9.68;84.57;98199.13;5025612;28;20049;-56
2021/12/22 05:12:51;;;;;;;23.50;11.60;;;;;;;-9.73;85.78;98201.22;5026673;28;20099;-55
2021/12/22 05:15:20;;;;;;;26.00;12.55;;;;;;;-9.58;84.53;98197.56;5034730;28;20051;-55
2021/12/22 05:18:12;;;;;;;24.92;12.00;;;;;;;-9.64;85.03;98200.59;5045232;28;20052;-56
2021/12/22 05:20:35;;;;;;;26.38;11.35;;;;;;;-9.67;85.29;98208.66;5042774;28;20052;-57
2021/12/22 05:23:03;;;;;;;23.13;11.85;;;;;;;-9.64;85.57;98215.47;5045577;28;20531;-54
2021/12/22 05:25:29;;;;;;;23.65;11.18;;;;;;;-9.66;86.00;98213.81;5035147;28;20049;-54
2021/12/22 05:27:56;;;;;;;25.02;12.45;;;;;;;-9.79;85.45;98212.97;5025918;28;20387;-55
2021/12/22 05:30:22;;;;;;;21.67;11.82;;;;;;;-9.76;85.97;98206.66;5026642;28;20056;-57
2021/12/22 05:32:53;;;;;;;24.40;12.95;;;;;;;-9.72;85.82;98213.38;5025911;28;20037;-53
2021/12/22 05:35:22;;;;;;;23.80;13.02;;;;;;;-9.65;85.92;98214.66;5024902;28;20107;-56
2021/12/22 05:37:49;;;;;;;25.70;13.90;;;;;;;-9.25;85.35;98219.00;5025078;28;20042;-56
2021/12/22 05:40:16;;;;;;;26.35;11.80;;;;;;;-9.42;85.05;98226.22;5028758;28;20037;-57
2021/12/22 05:42:42;;;;;;;27.92;14.02;;;;;;;-9.44;85.41;98222.03;5025722;28;20041;-57
2021/12/22 05:45:09;;;;;;;23.90;12.18;;;;;;;-9.52;84.79;98224.34;5032067;28;20049;-56
2021/12/22 05:47:36;;;;;;;24.65;12.52;;;;;;;-9.59;85.29;98214.25;5040395;28;20041;-54
2021/12/22 05:50:06;;;;;;;25.67;13.35;;;;;;;-9.54;85.13;98217.38;5027216;28;20071;-56
2021/12/22 05:52:33;;;;;;;25.20;13.27;;;;;;;-9.56;85.70;98219.28;5028828;28;20084;-56
2021/12/22 05:54:59;;;;;;;24.20;12.18;;;;;;;-9.62;84.87;98213.63;5031634;28;20607;-55
2021/12/22 05:57:25;;;;;;;22.48;12.32;;;;;;;-9.68;84.78;98215.72;5028669;28;20071;-52
2021/12/22 05:59:52;;;;;;;23.65;13.00;;;;;;;-9.76;85.90;98214.53;5032910;28;20503;-54
2021/12/22 06:02:18;;;;;;;23.10;13.50;;;;;;;-9.66;85.45;98203.31;5033432;28;20041;-58
2021/12/22 06:04:45;;;;;;;31.65;15.90;;;;;;;-9.74;85.94;98210.88;5027436;28;20045;-56
2021/12/22 06:07:12;;;;;;;41.13;20.27;;;;;;;-9.56;87.17;98202.69;5025383;28;20099;-58
2021/12/22 06:09:38;;;;;;;36.70;18.88;;;;;;;-9.42;86.80;98209.66;5029378;28;20044;-58
2021/12/22 06:12:05;;;;;;;31.08;15.98;;;;;;;-9.36;86.56;98204.00;5027334;28;20046;-57
2021/12/22 06:14:32;;;;;;;33.90;16.23;;;;;;;-9.22;86.11;98204.81;5046116;28;20044;-58
2021/12/22 06:16:58;;;;;;;26.45;14.43;;;;;;;-9.36;86.21;98197.91;5038252;28;20045;-56
2021/12/22 06:19:25;;;;;;;24.92;15.00;;;;;;;-9.37;85.68;98204.09;5038471;28;20049;-55
2021/12/22 06:21:52;;;;;;;31.75;15.13;;;;;;;-9.34;85.39;98209.09;5028315;28;20650;-58
2021/12/22 06:24:18;;;;;;;25.27;14.07;;;;;;;-9.34;86.42;98206.47;5038875;28;20103;-57
2021/12/22 06:26:45;;;;;;;31.83;16.05;;;;;;;-9.47;85.77;98203.88;5031476;28;20053;-53
2021/12/22 06:29:11;;;;;;;28.45;14.77;;;;;;;-9.55;85.84;98205.22;5027358;28;20045;-53
2021/12/22 06:31:38;;;;;;;28.25;15.38;;;;;;;-9.60;86.49;98209.94;5026126;28;20116;-57
2021/12/22 06:34:05;;;;;;;26.83;13.27;;;;;;;-9.57;86.45;98215.00;5030269;28;20033;-56
2021/12/22 06:36:32;;;;;;;26.45;14.00;;;;;;;-9.52;86.98;98213.84;5039608;28;20053;-54
2021/12/22 06:38:59;;;;;;;32.85;16.63;;;;;;;-9.48;87.23;98217.94;5027657;28;20052;-55
2021/12/22 06:41:26;;;;;;;28.42;14.80;;;;;;;-9.59;86.35;98221.28;5025154;28;20053;-57
2021/12/22 06:43:53;;;;;;;33.53;18.05;;;;;;;-9.66;86.35;98219.06;5035006;28;20045;-58
2021/12/22 06:46:19;;;;;;;87.28;42.50;;;;;;;-9.63;86.71;98220.63;5033886;28;20707;-56
2021/12/22 06:48:46;;;;;;;35.25;18.48;;;;;;;-9.62;87.21;98214.44;5027070;28;20115;-55
2021/12/22 06:51:12;;;;;;;27.17;14.93;;;;;;;-9.56;86.91;98214.03;5028034;28;20052;-56
2021/12/22 06:53:39;;;;;;;57.88;26.77;;;;;;;-9.56;87.03;98214.03;5037294;28;20052;-55
2021/12/22 06:56:05;;;;;;;39.28;20.60;;;;;;;-9.59;86.51;98209.00;5040135;28;20083;-55
2021/12/22 06:58:33;;;;;;;26.48;13.88;;;;;;;-9.63;86.34;98212.75;5034432;28;20110;-54
2021/12/22 07:01:00;;;;;;;34.58;17.85;;;;;;;-9.57;87.04;98203.66;5023004;28;20448;-53
2021/12/22 07:03:27;;;;;;;25.52;14.88;;;;;;;-9.31;89.05;98201.88;5028647;28;20556;-60
2021/12/22 07:05:54;;;;;;;48.83;22.52;;;;;;;-8.91;89.28;98203.53;5030213;28;20041;-55
2021/12/22 07:08:21;;;;;;;49.33;22.67;;;;;;;-8.55;87.85;98211.50;5027936;28;20068;-55
2021/12/22 07:10:48;;;;;;;41.88;20.58;;;;;;;-8.59;86.98;98215.31;5028869;28;20044;-57
2021/12/22 07:13:14;;;;;;;41.67;19.20;;;;;;;-8.32;86.04;98216.91;5039271;28;20041;-55
2021/12/22 07:15:45;;;;;;;32.20;16.60;;;;;;;-8.73;83.51;98216.31;5042127;28;20554;-54
2021/12/22 07:18:12;;;;;;;31.85;15.43;;;;;;;-9.09;83.30;98220.53;5024616;28;20046;-60
2021/12/22 07:20:40;;;;;;;46.97;20.55;;;;;;;-9.37;84.51;98225.91;5018652;28;20041;-60
2021/12/22 07:23:07;;;;;;;33.97;17.40;;;;;;;-9.52;85.97;98237.44;5027364;28;20049;-59
2021/12/22 07:25:34;;;;;;;38.08;15.52;;;;;;;-9.46;87.10;98239.63;5041249;28;20431;-60
2021/12/22 07:28:01;;;;;;;52.47;23.08;;;;;;;-9.38;86.54;98245.22;5039076;28;20049;-59
2021/12/22 07:30:27;;;;;;;45.35;20.58;;;;;;;-9.31;86.53;98243.84;5040800;28;20427;-59
2021/12/22 07:32:58;;;;;;;41.67;18.00;;;;;;;-9.55;85.63;98246.34;5031181;28;20047;-61
2021/12/22 07:35:36;;;;;;;83.28;34.13;;;;;;;-9.48;87.46;98246.78;5027023;28;20042;-59
2021/12/22 07:38:17;;;;;;;56.60;24.75;;;;;;;-9.50;86.53;98238.16;5032083;28;20472;-59
2021/12/22 07:40:43;;;;;;;66.32;28.50;;;;;;;-9.44;86.05;98243.00;5028835;28;20423;-59
2021/12/22 07:43:10;;;;;;;49.88;23.23;;;;;;;-9.47;85.88;98244.03;5032655;28;20092;-60
2021/12/22 07:45:36;;;;;;;50.78;24.58;;;;;;;-9.56;85.96;98242.03;5029275;28;20053;-61
2021/12/22 07:48:03;;;;;;;206.63;88.60;;;;;;;-9.54;86.94;98246.22;5034783;28;20068;-60
2021/12/22 07:50:30;;;;;;;232.95;101.38;;;;;;;-9.50;87.09;98243.41;5028156;28;20049;-59
2021/12/22 07:52:56;;;;;;;78.38;36.15;;;;;;;-9.55;86.59;98249.81;5040818;28;20049;-60
2021/12/22 07:55:23;;;;;;;31.38;17.25;;;;;;;-9.49;86.14;98255.56;5028652;28;20060;-60
2021/12/22 07:57:49;;;;;;;59.17;27.50;;;;;;;-9.50;87.22;98260.00;5022529;28;20068;-60
2021/12/22 08:00:17;;;;;;;120.57;56.42;;;;;;;-9.37;87.46;98260.00;5020351;28;20041;-60
2021/12/22 08:02:43;;;;;;;62.63;34.10;;;;;;;-9.33;86.57;98258.84;5022407;28;20103;-60
2021/12/22 08:05:30;;;;;;;44.30;22.63;;;;;;;-9.31;86.00;98261.38;5025088;28;20041;-57
2021/12/22 08:07:59;;;;;;;90.10;47.17;;;;;;;-9.45;86.86;98259.66;5020174;28;20041;-62
2021/12/22 08:10:26;;;;;;;53.97;27.83;;;;;;;-9.25;85.95;98266.22;5022447;28;20056;-61
2021/12/22 08:12:52;;;;;;;35.42;16.30;;;;;;;-9.23;87.07;98259.06;5021189;28;20061;-59
2021/12/22 08:15:19;;;;;;;44.05;20.55;;;;;;;-9.15;86.76;98256.75;5024796;28;20067;-59
2021/12/22 08:17:45;;;;;;;29.45;15.27;;;;;;;-9.22;86.00;98254.66;5022559;28;20440;-63
2021/12/22 08:20:12;;;;;;;32.03;17.60;;;;;;;-9.16;85.92;98257.72;5028293;28;20491;-60
2021/12/22 08:22:39;;;;;;;35.83;17.13;;;;;;;-9.09;86.33;98258.13;5025240;28;20505;-62
2021/12/22 08:25:06;;;;;;;31.15;16.88;;;;;;;-9.03;86.27;98262.13;5033539;28;20733;-62
2021/12/22 08:27:34;;;;;;;32.22;15.68;;;;;;;-8.98;85.89;98264.41;5034482;28;20099;-62
2021/12/22 08:30:00;;;;;;;37.47;16.80;;;;;;;-8.93;86.39;98257.06;5024871;28;20908;-59
2021/12/22 08:32:27;;;;;;;33.83;16.52;;;;;;;-8.94;86.38;98253.63;5014831;28;20041;-60
2021/12/22 08:34:56;;;;;;;37.67;16.05;;;;;;;-8.89;86.95;98251.50;5026584;28;20662;-60
2021/12/22 08:40:11;;;;;;;31.17;14.48;;;;;;;-8.54;88.01;98254.38;5026587;28;20501;-59
2021/12/22 08:42:37;;;;;;;27.95;15.00;;;;;;;-8.46;86.44;98243.28;5025628;28;20050;-60
2021/12/22 08:45:05;;;;;;;25.92;13.68;;;;;;;-8.28;86.33;98236.75;5026001;28;20041;-61
2021/12/22 08:47:31;;;;;;;30.27;14.98;;;;;;;-8.17;86.34;98235.97;5017657;28;20050;-62
2021/12/22 08:49:58;;;;;;;32.22;15.18;;;;;;;-7.79;86.49;98238.50;5006788;28;20521;-62
2021/12/22 08:52:24;;;;;;;30.75;14.57;;;;;;;-7.67;86.12;98224.44;5007586;28;20112;-62
2021/12/22 08:54:51;;;;;;;34.08;16.05;;;;;;;-7.55;85.50;98224.50;5019812;28;20050;-61
2021/12/22 08:57:18;;;;;;;32.35;15.82;;;;;;;-7.36;86.04;98223.94;5030094;28;20080;-63
2021/12/22 08:59:44;;;;;;;30.92;14.48;;;;;;;-7.25;86.43;98231.00;5023472;28;20104;-62
2021/12/22 09:02:11;;;;;;;31.17;14.82;;;;;;;-7.14;85.35;98224.91;5024507;28;20560;-60
2021/12/22 09:04:38;;;;;;;29.75;15.80;;;;;;;-6.98;84.82;98235.94;5024221;28;20049;-60
2021/12/22 09:07:06;;;;;;;29.83;14.07;;;;;;;-6.73;85.15;98231.41;5033037;28;20075;-60
2021/12/22 09:09:33;;;;;;;26.67;14.75;;;;;;;-6.50;85.63;98234.00;5018156;28;20052;-61
2021/12/22 09:12:00;;;;;;;24.58;12.07;;;;;;;-6.46;85.18;98235.44;5023346;28;20045;-63
2021/12/22 09:14:27;;;;;;;24.45;13.52;;;;;;;-6.27;85.08;98229.53;5033879;28;20563;-63
2021/12/22 09:16:53;;;;;;;31.30;15.50;;;;;;;-6.15;85.22;98235.63;5043645;28;20056;-63
2021/12/22 09:19:20;;;;;;;31.05;15.35;;;;;;;-6.01;85.07;98236.28;5028263;28;20128;-62
2021/12/22 09:21:46;;;;;;;30.63;14.93;;;;;;;-5.82;85.50;98232.13;5026359;28;20053;-62
2021/12/22 09:24:13;;;;;;;26.42;13.82;;;;;;;-5.72;84.66;98238.31;5029329;28;20047;-61
2021/12/22 09:26:40;;;;;;;30.33;15.02;;;;;;;-5.51;84.28;98232.22;5028987;28;20037;-63
2021/12/22 09:29:06;;;;;;;27.90;15.00;;;;;;;-5.36;83.46;98222.19;5037663;28;20114;-62
2021/12/22 09:31:34;;;;;;;27.35;13.15;;;;;;;-5.19;83.11;98222.56;5021052;28;20037;-61
2021/12/22 09:34:01;;;;;;;27.80;13.32;;;;;;;-5.08;82.05;98219.88;5025268;28;20560;-61
2021/12/22 09:36:27;;;;;;;28.83;14.90;;;;;;;-5.02;82.42;98227.25;5031618;28;20052;-61
2021/12/22 09:38:54;;;;;;;26.25;14.73;;;;;;;-4.89;82.35;98213.00;5024491;28;20586;-60
2021/12/22 09:41:21;;;;;;;30.50;15.23;;;;;;;-4.78;81.15;98209.41;5024622;28;20539;-60
2021/12/22 09:43:47;;;;;;;23.00;12.95;;;;;;;-4.69;81.32;98219.19;5022513;28;20042;-60
2021/12/22 09:46:18;;;;;;;23.70;12.32;;;;;;;-4.62;80.58;98203.63;5025838;28;20053;-65
2021/12/22 09:49:18;;;;;;;25.73;14.30;;;;;;;-4.54;80.76;98208.25;5025457;28;20069;-64
2021/12/22 09:54:31;;;;;;;25.50;13.77;;;;;;;-4.40;80.55;98209.66;5024253;28;20605;-61
2021/12/22 09:56:58;;;;;;;26.15;14.50;;;;;;;-4.33;80.91;98209.00;5030850;28;20042;-61
2021/12/22 09:59:26;;;;;;;31.73;14.07;;;;;;;-4.23;80.05;98211.69;5035366;28;20045;-61
2021/12/22 10:01:56;;;;;;;26.05;13.35;;;;;;;-4.25;79.71;98215.41;5032888;28;20701;-60
2021/12/22 10:04:23;;;;;;;25.35;14.35;;;;;;;-4.21;79.29;98214.16;5030075;28;20045;-61
2021/12/22 10:06:50;;;;;;;27.95;14.70;;;;;;;-4.14;79.81;98215.31;5037312;28;20111;-62
2021/12/22 10:09:22;;;;;;;29.27;13.65;;;;;;;-4.06;79.05;98212.81;5032082;28;20416;-62
2021/12/22 10:11:48;;;;;;;26.50;12.52;;;;;;;-3.97;79.00;98202.38;5033939;28;20049;-62
2021/12/22 10:14:21;;;;;;;25.27;13.30;;;;;;;-3.90;78.53;98198.22;5029327;28;20569;-63
2021/12/22 10:16:51;;;;;;;24.60;12.95;;;;;;;-3.86;78.23;98189.00;5032146;28;20681;-59
2021/12/22 10:19:19;;;;;;;26.33;14.00;;;;;;;-3.80;78.80;98188.44;5021602;28;20041;-58
2021/12/22 10:21:57;;;;;;;21.65;12.20;;;;;;;-3.63;77.63;98179.94;5022419;28;20139;-60
2021/12/22 10:24:42;;;;;;;24.83;12.25;;;;;;;-3.65;77.61;98172.13;5022265;28;20048;-62
2021/12/22 10:27:19;;;;;;;25.00;11.50;;;;;;;-3.61;78.12;98178.81;5022245;28;20091;-60
2021/12/22 10:29:47;;;;;;;23.65;13.07;;;;;;;-3.57;78.18;98171.44;5021504;28;20049;-59
2021/12/22 10:32:16;;;;;;;26.02;12.43;;;;;;;-3.52;78.86;98166.53;5022631;28;20104;-58
2021/12/22 10:34:54;;;;;;;23.48;12.07;;;;;;;-3.34;78.49;98171.97;5031674;28;20705;-60
2021/12/22 10:37:33;;;;;;;24.92;12.40;;;;;;;-3.24;77.04;98157.84;5034013;28;20049;-60
2021/12/22 10:40:00;;;;;;;30.73;14.20;;;;;;;-3.27;76.47;98151.84;5040009;28;20049;-59
2021/12/22 10:42:41;;;;;;;22.83;13.02;;;;;;;-3.22;76.43;98147.94;5043911;28;20044;-57
2021/12/22 10:45:13;;;;;;;21.33;12.03;;;;;;;-3.23;75.88;98149.75;5044363;28;20041;-59
2021/12/22 10:50:41;;;;;;;23.05;11.75;;;;;;;-3.05;76.27;98143.69;5042863;28;20412;-60
2021/12/22 10:53:09;;;;;;;23.48;11.43;;;;;;;-2.99;75.37;98142.28;5037985;28;20049;-61
2021/12/22 10:55:40;;;;;;;24.20;12.80;;;;;;;-2.90;74.82;98134.31;5035700;28;20041;-60
2021/12/22 10:58:34;;;;;;;23.35;12.35;;;;;;;-2.94;73.97;98132.91;5028868;28;20091;-59
2021/12/22 11:01:17;;;;;;;21.25;11.70;;;;;;;-2.85;74.10;98135.69;5023662;28;20052;-60
2021/12/22 11:03:50;;;;;;;24.55;11.68;;;;;;;-2.79;74.61;98121.81;5030369;28;20526;-58
2021/12/22 11:06:26;;;;;;;24.00;13.63;;;;;;;-2.79;75.39;98127.97;5030920;28;20103;-59
2021/12/22 11:09:14;;;;;;;24.50;11.70;;;;;;;-2.76;74.10;98122.34;5030819;28;20041;-59
2021/12/22 11:11:42;;;;;;;21.65;11.38;;;;;;;-2.68;73.71;98126.09;5027251;28;20468;-60
2021/12/22 11:14:11;;;;;;;20.27;11.20;;;;;;;-2.70;72.76;98115.63;5029038;28;20482;-64
2021/12/22 11:17:08;;;;;;;23.90;12.05;;;;;;;-2.62;73.28;98107.75;5035953;28;20037;-61
2021/12/22 11:19:44;;;;;;;20.33;10.43;;;;;;;-2.56;72.48;98102.84;5031440;28;20041;-61
2021/12/22 11:22:15;;;;;;;17.23;10.82;;;;;;;-2.54;72.49;98100.88;5031938;28;20041;-62
2021/12/22 11:24:51;;;;;;;19.33;10.73;;;;;;;-2.44;72.69;98106.13;5029062;28;20037;-61
2021/12/22 11:27:20;;;;;;;21.88;10.90;;;;;;;-2.38;74.12;98105.50;5032195;28;20049;-62
2021/12/22 11:29:58;;;;;;;23.10;10.75;;;;;;;-2.36;73.58;98106.22;5022215;28;20046;-60
2021/12/22 11:32:27;;;;;;;16.42;10.05;;;;;;;-2.29;72.15;98109.91;5037075;28;20044;-61
2021/12/22 11:34:57;;;;;;;22.25;11.95;;;;;;;-2.40;71.37;98102.19;5035631;28;20527;-59
2021/12/22 11:37:25;;;;;;;21.10;11.38;;;;;;;-2.45;71.78;98096.47;5019087;28;20045;-62
2021/12/22 11:39:53;;;;;;;17.20;9.95;;;;;;;-2.44;72.26;98101.63;5023431;28;20843;-61
2021/12/22 11:42:24;;;;;;;20.58;10.57;;;;;;;-2.38;71.88;98102.88;5036068;28;20577;-62
2021/12/22 11:44:55;;;;;;;20.92;10.38;;;;;;;-2.33;71.37;98105.88;5028363;28;20541;-62
2021/12/22 11:47:22;;;;;;;17.67;10.82;;;;;;;-2.22;71.25;98094.22;5027898;28;20045;-63
2021/12/22 11:50:00;;;;;;;19.38;10.45;;;;;;;-2.30;71.25;98094.97;5038846;28;20107;-61